sensor_id;sensor_type;location;lat;lon;timestamp;pressure;altitude;pressure_sealevel;temperature;humidity
64354;BME280;50681;53.334;-6.536;2023-11-19T00:02:07;99273.66;;;14.94;100.00
64354;BME280;50681;53.334;-6.536;2023-11-19T00:04:36;99276.00;;;14.79;100.00
64354;BME280;50681;53.334;-6.536;2023-11-19T00:07:03;99274.22;;;14.43;100.00
64354;BME280;50681;53.334;-6.536;2023-11-19T00:09:30;99258.34;;;14.29;100.00
64354;BME280;50681;53.334;-6.536;2023-11-19T00:11:56;99257.59;;;14.44;100.00
64354;BME280;50681;53.334;-6.536;2023-11-19T00:14:23;99259.75;;;14.38;100.00
64354;BME280;50681;53.334;-6.536;2023-11-19T00:16:49;99260.56;;;14.39;100.00
64354;BME280;50681;53.334;-6.536;2023-11-19T00:19:16;99271.63;;;14.46;100.00
64354;BME280;50681;53.334;-6.536;2023-11-19T00:21:42;99262.34;;;14.19;100.00
64354;BME280;50681;53.334;-6.536;2023-11-19T00:24:07;99264.69;;;14.49;100.00
64354;BME280;50681;53.334;-6.536;2023-11-19T00:26:33;99273.09;;;14.44;100.00
64354;BME280;50681;53.334;-6.536;2023-11-19T00:28:59;99276.31;;;14.62;100.00
64354;BME280;50681;53.334;-6.536;2023-11-19T00:31:24;99276.56;;;14.57;100.00
64354;BME280;50681;53.334;-6.536;2023-11-19T00:33:53;99270.06;;;14.61;100.00
64354;BME280;50681;53.334;-6.536;2023-11-19T00:36:18;99281.78;;;14.78;100.00
64354;BME280;50681;53.334;-6.536;2023-11-19T00:38:44;99280.94;;;15.06;100.00
64354;BME280;50681;53.334;-6.536;2023-11-19T00:41:09;99283.66;;;15.22;100.00
64354;BME280;50681;53.334;-6.536;2023-11-19T00:43:35;99271.91;;;14.86;100.00
64354;BME280;50681;53.334;-6.536;2023-11-19T00:46:01;99275.56;;;14.77;100.00
64354;BME280;50681;53.334;-6.536;2023-11-19T00:48:28;99262.69;;;14.90;100.00
64354;BME280;50681;53.334;-6.536;2023-11-19T00:50:53;99272.84;;;14.93;100.00
64354;BME280;50681;53.334;-6.536;2023-11-19T00:53:19;99265.69;;;14.57;100.00
64354;BME280;50681;53.334;-6.536;2023-11-19T00:55:44;99266.13;;;14.59;100.00
64354;BME280;50681;53.334;-6.536;2023-11-19T00:58:10;99273.28;;;14.79;100.00
64354;BME280;50681;53.334;-6.536;2023-11-19T01:00:35;99262.63;;;14.58;100.00
64354;BME280;50681;53.334;-6.536;2023-11-19T01:03:00;99248.81;;;14.35;100.00
64354;BME280;50681;53.334;-6.536;2023-11-19T01:05:26;99241.25;;;14.57;100.00
64354;BME280;50681;53.334;-6.536;2023-11-19T01:07:52;99248.06;;;14.50;100.00
64354;BME280;50681;53.334;-6.536;2023-11-19T01:10:19;99240.50;;;14.44;100.00
64354;BME280;50681;53.334;-6.536;2023-11-19T01:12:44;99226.59;;;14.17;100.00
64354;BME280;50681;53.334;-6.536;2023-11-19T01:15:10;99227.03;;;14.19;100.00
64354;BME280;50681;53.334;-6.536;2023-11-19T01:17:37;99214.41;;;14.55;100.00
64354;BME280;50681;53.334;-6.536;2023-11-19T01:20:03;99217.25;;;14.14;100.00
64354;BME280;50681;53.334;-6.536;2023-11-19T01:22:31;99211.28;;;13.96;100.00
64354;BME280;50681;53.334;-6.536;2023-11-19T01:24:57;99220.88;;;14.06;100.00
64354;BME280;50681;53.334;-6.536;2023-11-19T01:27:23;99205.91;;;14.40;100.00
64354;BME280;50681;53.334;-6.536;2023-11-19T01:29:49;99200.53;;;14.28;100.00
64354;BME280;50681;53.334;-6.536;2023-11-19T01:32:15;99209.22;;;14.34;100.00
64354;BME280;50681;53.334;-6.536;2023-11-19T01:34:40;99210.03;;;14.06;100.00
64354;BME280;50681;53.334;-6.536;2023-11-19T01:37:06;99208.97;;;14.10;100.00
64354;BME280;50681;53.334;-6.536;2023-11-19T01:39:32;99201.53;;;14.36;100.00
64354;BME280;50681;53.334;-6.536;2023-11-19T01:41:57;99202.25;;;14.65;100.00
64354;BME280;50681;53.334;-6.536;2023-11-19T01:44:22;99203.28;;;14.44;100.00
64354;BME280;50681;53.334;-6.536;2023-11-19T01:46:48;99199.19;;;14.50;100.00
64354;BME280;50681;53.334;-6.536;2023-11-19T01:49:17;99200.06;;;14.54;100.00
64354;BME280;50681;53.334;-6.536;2023-11-19T01:51:44;99207.50;;;14.58;100.00
64354;BME280;50681;53.334;-6.536;2023-11-19T01:54:11;99188.19;;;14.75;100.00
64354;BME280;50681;53.334;-6.536;2023-11-19T01:56:37;99194.94;;;14.81;100.00
64354;BME280;50681;53.334;-6.536;2023-11-19T01:59:06;99192.34;;;14.57;100.00
64354;BME280;50681;53.334;-6.536;2023-11-19T02:01:32;99195.97;;;14.77;100.00
64354;BME280;50681;53.334;-6.536;2023-11-19T02:03:59;99182.75;;;14.75;100.00
64354;BME280;50681;53.334;-6.536;2023-11-19T02:06:25;99192.69;;;14.55;100.00
64354;BME280;50681;53.334;-6.536;2023-11-19T02:08:51;99186.38;;;14.51;100.00
64354;BME280;50681;53.334;-6.536;2023-11-19T02:11:17;99171.16;;;14.46;100.00
64354;BME280;50681;53.334;-6.536;2023-11-19T02:13:42;99182.69;;;14.59;100.00
64354;BME280;50681;53.334;-6.536;2023-11-19T02:16:09;99183.66;;;14.35;100.00
64354;BME280;50681;53.334;-6.536;2023-11-19T02:18:36;99181.56;;;14.44;100.00
64354;BME280;50681;53.334;-6.536;2023-11-19T02:21:02;99162.88;;;14.26;100.00
64354;BME280;50681;53.334;-6.536;2023-11-19T02:23:28;99164.50;;;14.60;100.00
64354;BME280;50681;53.334;-6.536;2023-11-19T02:28:36;99181.63;;;14.76;100.00
64354;BME280;50681;53.334;-6.536;2023-11-19T02:31:02;99172.34;;;14.49;100.00
64354;BME280;50681;53.334;-6.536;2023-11-19T02:33:30;99172.72;;;14.63;100.00
64354;BME280;50681;53.334;-6.536;2023-11-19T02:35:55;99164.69;;;14.83;100.00
64354;BME280;50681;53.334;-6.536;2023-11-19T02:38:21;99179.53;;;14.57;100.00
64354;BME280;50681;53.334;-6.536;2023-11-19T02:40:47;99171.97;;;14.79;100.00
64354;BME280;50681;53.334;-6.536;2023-11-19T02:43:13;99165.47;;;14.83;100.00
64354;BME280;50681;53.334;-6.536;2023-11-19T02:45:38;99176.69;;;14.82;100.00
64354;BME280;50681;53.334;-6.536;2023-11-19T02:48:04;99178.00;;;15.04;100.00
64354;BME280;50681;53.334;-6.536;2023-11-19T02:50:31;99175.44;;;14.95;100.00
64354;BME280;50681;53.334;-6.536;2023-11-19T02:52:57;99168.69;;;15.05;100.00
64354;BME280;50681;53.334;-6.536;2023-11-19T02:55:23;99169.47;;;15.22;100.00
64354;BME280;50681;53.334;-6.536;2023-11-19T02:57:49;99164.34;;;15.20;100.00
64354;BME280;50681;53.334;-6.536;2023-11-19T03:00:16;99171.09;;;15.26;100.00
64354;BME280;50681;53.334;-6.536;2023-11-19T03:02:42;99160.53;;;15.05;100.00
64354;BME280;50681;53.334;-6.536;2023-11-19T03:05:14;99160.88;;;15.04;100.00
64354;BME280;50681;53.334;-6.536;2023-11-19T03:07:43;99171.03;;;15.23;100.00
64354;BME280;50681;53.334;-6.536;2023-11-19T03:10:10;99164.47;;;15.08;100.00
64354;BME280;50681;53.334;-6.536;2023-11-19T03:12:39;99155.22;;;14.93;100.00
64354;BME280;50681;53.334;-6.536;2023-11-19T03:15:05;99159.09;;;15.27;100.00
64354;BME280;50681;53.334;-6.536;2023-11-19T03:17:30;99155.50;;;15.23;100.00
64354;BME280;50681;53.334;-6.536;2023-11-19T03:19:56;99157.88;;;15.25;100.00
64354;BME280;50681;53.334;-6.536;2023-11-19T03:22:21;99153.41;;;15.17;100.00
64354;BME280;50681;53.334;-6.536;2023-11-19T03:24:47;99158.19;;;14.88;100.00
64354;BME280;50681;53.334;-6.536;2023-11-19T03:27:12;99153.69;;;15.11;100.00
64354;BME280;50681;53.334;-6.536;2023-11-19T03:29:38;99155.19;;;15.09;100.00
64354;BME280;50681;53.334;-6.536;2023-11-19T03:32:04;99148.09;;;15.04;100.00
64354;BME280;50681;53.334;-6.536;2023-11-19T03:34:30;99143.81;;;15.03;100.00
64354;BME280;50681;53.334;-6.536;2023-11-19T03:36:55;99153.25;;;15.09;100.00
64354;BME280;50681;53.334;-6.536;2023-11-19T03:39:22;99138.31;;;15.19;100.00
64354;BME280;50681;53.334;-6.536;2023-11-19T03:41:50;99137.91;;;15.37;100.00
64354;BME280;50681;53.334;-6.536;2023-11-19T03:44:15;99127.13;;;15.40;100.00
64354;BME280;50681;53.334;-6.536;2023-11-19T03:46:41;99134.56;;;15.43;100.00
64354;BME280;50681;53.334;-6.536;2023-11-19T03:49:06;99125.81;;;15.14;100.00
64354;BME280;50681;53.334;-6.536;2023-11-19T03:51:32;99138.03;;;15.60;100.00
64354;BME280;50681;53.334;-6.536;2023-11-19T03:53:59;99127.19;;;15.44;100.00
64354;BME280;50681;53.334;-6.536;2023-11-19T03:56:25;99122.47;;;15.41;100.00
64354;BME280;50681;53.334;-6.536;2023-11-19T03:58:50;99126.59;;;15.35;100.00
64354;BME280;50681;53.334;-6.536;2023-11-19T04:01:17;99131.00;;;15.39;100.00
64354;BME280;50681;53.334;-6.536;2023-11-19T04:03:42;99122.09;;;15.23;100.00
64354;BME280;50681;53.334;-6.536;2023-11-19T04:06:08;99118.84;;;15.17;100.00
64354;BME280;50681;53.334;-6.536;2023-11-19T04:08:33;99120.56;;;15.61;100.00
64354;BME280;50681;53.334;-6.536;2023-11-19T04:11:00;99123.69;;;15.63;100.00
64354;BME280;50681;53.334;-6.536;2023-11-19T04:13:26;99116.09;;;15.53;100.00
64354;BME280;50681;53.334;-6.536;2023-11-19T04:15:51;99108.88;;;15.41;100.00
64354;BME280;50681;53.334;-6.536;2023-11-19T04:18:17;99119.53;;;15.69;100.00
64354;BME280;50681;53.334;-6.536;2023-11-19T04:20:42;99112.97;;;15.51;100.00
64354;BME280;50681;53.334;-6.536;2023-11-19T04:23:10;99116.97;;;15.37;100.00
64354;BME280;50681;53.334;-6.536;2023-11-19T04:25:36;99123.84;;;15.51;100.00
64354;BME280;50681;53.334;-6.536;2023-11-19T04:28:02;99114.09;;;15.30;100.00
64354;BME280;50681;53.334;-6.536;2023-11-19T04:30:28;99107.41;;;15.27;100.00
64354;BME280;50681;53.334;-6.536;2023-11-19T04:32:53;99118.53;;;15.38;100.00
64354;BME280;50681;53.334;-6.536;2023-11-19T04:35:18;99100.47;;;15.10;100.00
64354;BME280;50681;53.334;-6.536;2023-11-19T04:37:44;99103.13;;;15.26;100.00
64354;BME280;50681;53.334;-6.536;2023-11-19T04:40:10;99110.09;;;15.08;100.00
64354;BME280;50681;53.334;-6.536;2023-11-19T04:42:37;99101.75;;;15.17;100.00
64354;BME280;50681;53.334;-6.536;2023-11-19T04:45:05;99105.06;;;15.26;100.00
64354;BME280;50681;53.334;-6.536;2023-11-19T04:47:32;99107.69;;;15.22;100.00
64354;BME280;50681;53.334;-6.536;2023-11-19T04:49:58;99103.22;;;15.50;100.00
64354;BME280;50681;53.334;-6.536;2023-11-19T04:52:23;99118.53;;;15.38;100.00
64354;BME280;50681;53.334;-6.536;2023-11-19T04:54:49;99116.69;;;15.62;100.00
64354;BME280;50681;53.334;-6.536;2023-11-19T04:57:14;99112.28;;;15.38;100.00
64354;BME280;50681;53.334;-6.536;2023-11-19T04:59:40;99109.66;;;15.22;100.00
64354;BME280;50681;53.334;-6.536;2023-11-19T05:02:06;99103.28;;;15.34;100.00
64354;BME280;50681;53.334;-6.536;2023-11-19T05:04:32;99103.41;;;15.41;100.00
64354;BME280;50681;53.334;-6.536;2023-11-19T05:06:57;99105.50;;;15.48;100.00
64354;BME280;50681;53.334;-6.536;2023-11-19T05:09:22;99098.50;;;15.47;100.00
64354;BME280;50681;53.334;-6.536;2023-11-19T05:11:48;99096.06;;;15.61;100.00
64354;BME280;50681;53.334;-6.536;2023-11-19T05:14:14;99101.41;;;15.57;100.00
64354;BME280;50681;53.334;-6.536;2023-11-19T05:16:40;99092.91;;;15.39;100.00
64354;BME280;50681;53.334;-6.536;2023-11-19T05:19:06;99086.19;;;15.53;100.00
64354;BME280;50681;53.334;-6.536;2023-11-19T05:21:31;99083.59;;;15.21;100.00
64354;BME280;50681;53.334;-6.536;2023-11-19T05:23:56;99084.81;;;15.23;100.00
64354;BME280;50681;53.334;-6.536;2023-11-19T05:26:23;99084.44;;;15.05;100.00
64354;BME280;50681;53.334;-6.536;2023-11-19T05:28:49;99091.44;;;15.06;100.00
64354;BME280;50681;53.334;-6.536;2023-11-19T05:31:16;99075.34;;;15.17;100.00
64354;BME280;50681;53.334;-6.536;2023-11-19T05:33:41;99088.09;;;15.52;100.00
64354;BME280;50681;53.334;-6.536;2023-11-19T05:36:07;99075.91;;;15.07;100.00
64354;BME280;50681;53.334;-6.536;2023-11-19T05:38:34;99081.94;;;15.36;100.00
64354;BME280;50681;53.334;-6.536;2023-11-19T05:40:59;99067.41;;;15.08;100.00
64354;BME280;50681;53.334;-6.536;2023-11-19T05:43:24;99082.31;;;15.14;100.00
64354;BME280;50681;53.334;-6.536;2023-11-19T05:45:50;99073.00;;;15.35;100.00
64354;BME280;50681;53.334;-6.536;2023-11-19T05:48:16;99063.91;;;15.27;100.00
64354;BME280;50681;53.334;-6.536;2023-11-19T05:50:42;99071.63;;;15.65;100.00
64354;BME280;50681;53.334;-6.536;2023-11-19T05:53:07;99063.75;;;15.20;100.00
64354;BME280;50681;53.334;-6.536;2023-11-19T05:55:36;99058.56;;;15.11;100.00
64354;BME280;50681;53.334;-6.536;2023-11-19T05:58:02;99053.59;;;15.17;100.00
64354;BME280;50681;53.334;-6.536;2023-11-19T06:00:29;99056.53;;;15.08;100.00
64354;BME280;50681;53.334;-6.536;2023-11-19T06:02:55;99057.31;;;15.48;100.00
64354;BME280;50681;53.334;-6.536;2023-11-19T06:05:21;99056.72;;;14.99;100.00
64354;BME280;50681;53.334;-6.536;2023-11-19T06:07:46;99059.81;;;14.98;100.00
64354;BME280;50681;53.334;-6.536;2023-11-19T06:10:11;99063.63;;;15.13;100.00
64354;BME280;50681;53.334;-6.536;2023-11-19T06:12:39;99055.19;;;15.18;100.00
64354;BME280;50681;53.334;-6.536;2023-11-19T06:15:07;99053.56;;;15.33;100.00
64354;BME280;50681;53.334;-6.536;2023-11-19T06:17:34;99049.66;;;14.95;100.00
64354;BME280;50681;53.334;-6.536;2023-11-19T06:19:59;99049.81;;;15.02;100.00
64354;BME280;50681;53.334;-6.536;2023-11-19T06:22:24;99058.56;;;15.11;100.00
64354;BME280;50681;53.334;-6.536;2023-11-19T06:24:50;99055.31;;;15.06;100.00
64354;BME280;50681;53.334;-6.536;2023-11-19T06:27:15;99047.09;;;15.02;100.00
64354;BME280;50681;53.334;-6.536;2023-11-19T06:29:41;99063.19;;;15.11;100.00
64354;BME280;50681;53.334;-6.536;2023-11-19T06:32:06;99072.47;;;15.10;100.00
64354;BME280;50681;53.334;-6.536;2023-11-19T06:34:33;99046.84;;;14.91;100.00
64354;BME280;50681;53.334;-6.536;2023-11-19T06:36:59;99054.66;;;14.93;100.00
64354;BME280;50681;53.334;-6.536;2023-11-19T06:39:24;99051.09;;;15.08;100.00
64354;BME280;50681;53.334;-6.536;2023-11-19T06:41:50;99058.81;;;15.06;100.00
64354;BME280;50681;53.334;-6.536;2023-11-19T06:44:15;99051.44;;;15.07;100.00
64354;BME280;50681;53.334;-6.536;2023-11-19T06:46:41;99049.84;;;15.22;100.00
64354;BME280;50681;53.334;-6.536;2023-11-19T06:49:06;99051.81;;;15.05;100.00
64354;BME280;50681;53.334;-6.536;2023-11-19T06:51:34;99051.56;;;15.30;100.00
64354;BME280;50681;53.334;-6.536;2023-11-19T06:53:59;99050.13;;;15.17;100.00
64354;BME280;50681;53.334;-6.536;2023-11-19T06:56:25;99046.44;;;15.09;100.00
64354;BME280;50681;53.334;-6.536;2023-11-19T06:58:51;99042.00;;;15.20;100.00
64354;BME280;50681;53.334;-6.536;2023-11-19T07:01:17;99044.88;;;15.08;100.00
64354;BME280;50681;53.334;-6.536;2023-11-19T07:03:44;99056.47;;;15.44;100.00
64354;BME280;50681;53.334;-6.536;2023-11-19T07:06:10;99056.59;;;15.12;100.00
64354;BME280;50681;53.334;-6.536;2023-11-19T07:08:35;99053.41;;;15.06;100.00
64354;BME280;50681;53.334;-6.536;2023-11-19T07:11:02;99049.25;;;15.12;100.00
64354;BME280;50681;53.334;-6.536;2023-11-19T07:13:28;99053.53;;;15.13;100.00
64354;BME280;50681;53.334;-6.536;2023-11-19T07:15:55;99049.31;;;15.36;100.00
64354;BME280;50681;53.334;-6.536;2023-11-19T07:18:21;99067.16;;;15.33;100.00
64354;BME280;50681;53.334;-6.536;2023-11-19T07:20:49;99048.31;;;15.44;100.00
64354;BME280;50681;53.334;-6.536;2023-11-19T07:25:51;99042.44;;;15.42;100.00
64354;BME280;50681;53.334;-6.536;2023-11-19T07:28:19;99050.25;;;15.63;100.00
64354;BME280;50681;53.334;-6.536;2023-11-19T07:30:46;99048.81;;;15.50;100.00
64354;BME280;50681;53.334;-6.536;2023-11-19T07:33:15;99056.53;;;15.67;100.00
64354;BME280;50681;53.334;-6.536;2023-11-19T07:35:40;99051.25;;;15.35;100.00
64354;BME280;50681;53.334;-6.536;2023-11-19T07:38:07;99037.09;;;15.06;100.00
64354;BME280;50681;53.334;-6.536;2023-11-19T07:40:33;99050.03;;;15.33;100.00
64354;BME280;50681;53.334;-6.536;2023-11-19T07:42:58;99040.66;;;15.30;100.00
64354;BME280;50681;53.334;-6.536;2023-11-19T07:45:23;99058.56;;;15.11;100.00
64354;BME280;50681;53.334;-6.536;2023-11-19T07:47:49;99052.13;;;15.39;100.00
64354;BME280;50681;53.334;-6.536;2023-11-19T07:50:16;99059.03;;;15.37;100.00
64354;BME280;50681;53.334;-6.536;2023-11-19T07:52:44;99059.03;;;15.37;100.00
64354;BME280;50681;53.334;-6.536;2023-11-19T07:55:09;99065.16;;;15.50;100.00
64354;BME280;50681;53.334;-6.536;2023-11-19T07:57:35;99052.47;;;15.38;100.00
64354;BME280;50681;53.334;-6.536;2023-11-19T08:00:00;99052.75;;;15.52;100.00
64354;BME280;50681;53.334;-6.536;2023-11-19T08:02:27;99058.00;;;15.41;100.00
64354;BME280;50681;53.334;-6.536;2023-11-19T08:04:52;99056.28;;;15.33;100.00
64354;BME280;50681;53.334;-6.536;2023-11-19T08:07:20;99068.22;;;15.48;100.00
64354;BME280;50681;53.334;-6.536;2023-11-19T08:09:46;99072.56;;;15.72;100.00
64354;BME280;50681;53.334;-6.536;2023-11-19T08:12:11;99062.69;;;15.64;100.00
64354;BME280;50681;53.334;-6.536;2023-11-19T08:14:39;99068.44;;;15.59;100.00
64354;BME280;50681;53.334;-6.536;2023-11-19T08:17:04;99066.31;;;15.72;100.00
64354;BME280;50681;53.334;-6.536;2023-11-19T08:19:30;99075.63;;;15.71;100.00
64354;BME280;50681;53.334;-6.536;2023-11-19T08:21:55;99077.59;;;15.70;100.00
64354;BME280;50681;53.334;-6.536;2023-11-19T08:24:20;99079.94;;;15.72;100.00
64354;BME280;50681;53.334;-6.536;2023-11-19T08:26:46;99073.63;;;15.68;100.00
64354;BME280;50681;53.334;-6.536;2023-11-19T08:29:11;99078.16;;;15.80;100.00
64354;BME280;50681;53.334;-6.536;2023-11-19T08:31:37;99080.44;;;15.78;100.00
64354;BME280;50681;53.334;-6.536;2023-11-19T08:34:02;99074.31;;;15.84;100.00
64354;BME280;50681;53.334;-6.536;2023-11-19T08:36:27;99081.38;;;15.66;100.00
64354;BME280;50681;53.334;-6.536;2023-11-19T08:38:53;99076.50;;;15.75;100.00
64354;BME280;50681;53.334;-6.536;2023-11-19T08:41:19;99079.63;;;15.97;100.00
64354;BME280;50681;53.334;-6.536;2023-11-19T08:43:44;99087.13;;;16.04;100.00
64354;BME280;50681;53.334;-6.536;2023-11-19T08:46:11;99087.97;;;16.08;100.00
64354;BME280;50681;53.334;-6.536;2023-11-19T08:48:36;99090.94;;;15.99;100.00
64354;BME280;50681;53.334;-6.536;2023-11-19T08:51:02;99102.88;;;16.14;100.00
64354;BME280;50681;53.334;-6.536;2023-11-19T08:53:27;99098.59;;;15.93;100.00
64354;BME280;50681;53.334;-6.536;2023-11-19T08:55:52;99098.47;;;15.86;100.00
64354;BME280;50681;53.334;-6.536;2023-11-19T08:58:18;99098.06;;;15.84;100.00
64354;BME280;50681;53.334;-6.536;2023-11-19T09:00:43;99103.34;;;15.96;100.00
64354;BME280;50681;53.334;-6.536;2023-11-19T09:03:09;99107.91;;;15.92;100.00
64354;BME280;50681;53.334;-6.536;2023-11-19T09:05:34;99109.44;;;15.90;100.00
64354;BME280;50681;53.334;-6.536;2023-11-19T09:08:00;99107.09;;;15.88;100.00
64354;BME280;50681;53.334;-6.536;2023-11-19T09:10:25;99112.97;;;16.13;100.00
64354;BME280;50681;53.334;-6.536;2023-11-19T09:12:52;99111.59;;;16.23;100.00
64354;BME280;50681;53.334;-6.536;2023-11-19T09:15:17;99110.84;;;16.26;100.00
64354;BME280;50681;53.334;-6.536;2023-11-19T09:17:43;99111.84;;;16.14;100.00
64354;BME280;50681;53.334;-6.536;2023-11-19T09:20:09;99118.84;;;16.15;100.00
64354;BME280;50681;53.334;-6.536;2023-11-19T09:22:37;99118.59;;;16.24;100.00
64354;BME280;50681;53.334;-6.536;2023-11-19T09:25:03;99128.00;;;16.27;100.00
64354;BME280;50681;53.334;-6.536;2023-11-19T09:27:28;99134.63;;;16.29;100.00
64354;BME280;50681;53.334;-6.536;2023-11-19T09:29:54;99130.59;;;16.20;100.00
64354;BME280;50681;53.334;-6.536;2023-11-19T09:32:22;99140.47;;;16.28;100.00
64354;BME280;50681;53.334;-6.536;2023-11-19T09:34:48;99141.06;;;16.41;100.00
64354;BME280;50681;53.334;-6.536;2023-11-19T09:37:14;99147.66;;;16.40;100.00
64354;BME280;50681;53.334;-6.536;2023-11-19T09:39:39;99155.41;;;16.38;100.00
64354;BME280;50681;53.334;-6.536;2023-11-19T09:42:09;99162.75;;;16.57;100.00
64354;BME280;50681;53.334;-6.536;2023-11-19T09:44:34;99163.41;;;16.50;100.00
64354;BME280;50681;53.334;-6.536;2023-11-19T09:47:01;99160.59;;;16.23;100.00
64354;BME280;50681;53.334;-6.536;2023-11-19T09:49:27;99169.56;;;16.24;100.00
64354;BME280;50681;53.334;-6.536;2023-11-19T09:51:53;99171.16;;;16.48;100.00
64354;BME280;50681;53.334;-6.536;2023-11-19T09:54:19;99176.34;;;16.34;100.00
64354;BME280;50681;53.334;-6.536;2023-11-19T09:56:44;99184.38;;;16.26;100.00
64354;BME280;50681;53.334;-6.536;2023-11-19T09:59:10;99191.22;;;16.16;100.00
64354;BME280;50681;53.334;-6.536;2023-11-19T10:01:37;99187.94;;;15.87;100.00
64354;BME280;50681;53.334;-6.536;2023-11-19T10:04:03;99197.88;;;16.19;100.00
64354;BME280;50681;53.334;-6.536;2023-11-19T10:06:30;99191.50;;;15.72;100.00
64354;BME280;50681;53.334;-6.536;2023-11-19T10:08:55;99199.88;;;16.02;100.00
64354;BME280;50681;53.334;-6.536;2023-11-19T10:11:21;99205.13;;;16.11;100.00
64354;BME280;50681;53.334;-6.536;2023-11-19T10:13:46;99208.53;;;16.48;100.00
64354;BME280;50681;53.334;-6.536;2023-11-19T10:16:13;99208.41;;;16.21;100.00
64354;BME280;50681;53.334;-6.536;2023-11-19T10:18:49;99206.00;;;16.39;100.00
64354;BME280;50681;53.334;-6.536;2023-11-19T10:21:18;99216.16;;;16.19;100.00
64354;BME280;50681;53.334;-6.536;2023-11-19T10:23:55;99225.75;;;16.12;100.00
64354;BME280;50681;53.334;-6.536;2023-11-19T10:26:23;99235.13;;;16.15;100.00
64354;BME280;50681;53.334;-6.536;2023-11-19T10:28:49;99223.28;;;16.46;100.00
64354;BME280;50681;53.334;-6.536;2023-11-19T10:31:15;99239.94;;;16.22;100.00
64354;BME280;50681;53.334;-6.536;2023-11-19T10:33:41;99243.16;;;16.27;100.00
64354;BME280;50681;53.334;-6.536;2023-11-19T10:36:07;99248.25;;;16.29;100.00
64354;BME280;50681;53.334;-6.536;2023-11-19T10:38:33;99261.94;;;15.93;100.00
64354;BME280;50681;53.334;-6.536;2023-11-19T10:41:06;99258.22;;;16.01;100.00
64354;BME280;50681;53.334;-6.536;2023-11-19T10:43:42;99262.06;;;16.00;100.00
64354;BME280;50681;53.334;-6.536;2023-11-19T10:46:10;99277.63;;;16.00;100.00
64354;BME280;50681;53.334;-6.536;2023-11-19T10:48:37;99274.69;;;15.89;100.00
64354;BME280;50681;53.334;-6.536;2023-11-19T10:51:05;99277.94;;;16.34;100.00
64354;BME280;50681;53.334;-6.536;2023-11-19T10:53:36;99285.88;;;16.23;100.00
64354;BME280;50681;53.334;-6.536;2023-11-19T10:56:02;99286.56;;;16.00;100.00
64354;BME280;50681;53.334;-6.536;2023-11-19T10:58:32;99292.41;;;16.38;100.00
64354;BME280;50681;53.334;-6.536;2023-11-19T11:01:01;99295.19;;;16.42;100.00
64354;BME280;50681;53.334;-6.536;2023-11-19T11:03:36;99303.50;;;16.29;100.00
64354;BME280;50681;53.334;-6.536;2023-11-19T11:06:04;99299.50;;;16.23;100.00
64354;BME280;50681;53.334;-6.536;2023-11-19T11:08:31;99304.66;;;15.89;100.00
64354;BME280;50681;53.334;-6.536;2023-11-19T11:10:57;99303.06;;;16.27;100.00
64354;BME280;50681;53.334;-6.536;2023-11-19T11:13:26;99305.75;;;16.43;100.00
64354;BME280;50681;53.334;-6.536;2023-11-19T11:15:55;99312.09;;;16.31;100.00
64354;BME280;50681;53.334;-6.536;2023-11-19T11:18:23;99313.25;;;16.11;100.00
64354;BME280;50681;53.334;-6.536;2023-11-19T11:20:56;99318.41;;;16.16;100.00
64354;BME280;50681;53.334;-6.536;2023-11-19T11:37:46;99345.88;;;15.91;100.00
64354;BME280;50681;53.334;-6.536;2023-11-19T11:40:16;99369.53;;;15.87;100.00
64354;BME280;50681;53.334;-6.536;2023-11-19T11:42:44;99359.16;;;15.93;100.00
64354;BME280;50681;53.334;-6.536;2023-11-19T11:45:14;99357.03;;;16.02;100.00
64354;BME280;50681;53.334;-6.536;2023-11-19T11:50:12;99368.75;;;16.42;100.00
64354;BME280;50681;53.334;-6.536;2023-11-19T11:53:15;99378.63;;;16.70;100.00
64354;BME280;50681;53.334;-6.536;2023-11-19T11:58:19;99364.50;;;16.25;100.00
64354;BME280;50681;53.334;-6.536;2023-11-19T12:00:48;99375.53;;;16.12;100.00
64354;BME280;50681;53.334;-6.536;2023-11-19T12:03:14;99386.69;;;16.07;100.00
64354;BME280;50681;53.334;-6.536;2023-11-19T12:05:47;99384.31;;;16.06;100.00
64354;BME280;50681;53.334;-6.536;2023-11-19T12:08:14;99382.03;;;16.08;100.00
64354;BME280;50681;53.334;-6.536;2023-11-19T12:10:49;99384.13;;;16.14;100.00
64354;BME280;50681;53.334;-6.536;2023-11-19T12:13:15;99393.16;;;16.19;100.00
64354;BME280;50681;53.334;-6.536;2023-11-19T12:18:23;99390.69;;;15.78;100.00
64354;BME280;50681;53.334;-6.536;2023-11-19T12:20:48;99389.97;;;15.49;100.00
64354;BME280;50681;53.334;-6.536;2023-11-19T12:23:14;99415.59;;;15.48;100.00
64354;BME280;50681;53.334;-6.536;2023-11-19T12:25:40;99408.06;;;15.89;100.00
64354;BME280;50681;53.334;-6.536;2023-11-19T12:28:11;99419.53;;;15.98;100.00
64354;BME280;50681;53.334;-6.536;2023-11-19T12:30:37;99416.13;;;15.69;100.00
64354;BME280;50681;53.334;-6.536;2023-11-19T12:33:10;99408.25;;;15.64;100.00
64354;BME280;50681;53.334;-6.536;2023-11-19T12:35:45;99423.88;;;15.67;100.00
64354;BME280;50681;53.334;-6.536;2023-11-19T12:40:44;99436.75;;;15.86;100.00
64354;BME280;50681;53.334;-6.536;2023-11-19T12:43:10;99442.88;;;15.51;100.00
64354;BME280;50681;53.334;-6.536;2023-11-19T12:45:36;99453.78;;;15.67;100.00
64354;BME280;50681;53.334;-6.536;2023-11-19T12:48:05;99459.59;;;15.82;100.00
64354;BME280;50681;53.334;-6.536;2023-11-19T12:50:50;99468.63;;;15.86;100.00
64354;BME280;50681;53.334;-6.536;2023-11-19T12:53:16;99471.34;;;15.70;100.00
64354;BME280;50681;53.334;-6.536;2023-11-19T12:55:42;99474.59;;;15.76;100.00
64354;BME280;50681;53.334;-6.536;2023-11-19T12:58:07;99479.31;;;15.47;100.00
64354;BME280;50681;53.334;-6.536;2023-11-19T13:00:33;99486.72;;;15.78;100.00
64354;BME280;50681;53.334;-6.536;2023-11-19T13:02:59;99484.88;;;15.22;100.00
64354;BME280;50681;53.334;-6.536;2023-11-19T13:05:32;99485.56;;;15.63;100.00
64354;BME280;50681;53.334;-6.536;2023-11-19T13:08:05;99479.50;;;15.54;100.00